Ardmore, South Dakota
Current Conditions -  °F | °C
As of 5:53 AM on Sunday 23 Nov 2014 (Local Time) from KCUT Reporting Station
Clear Clear  
Wind Chill: 18°   Ceiling: Unl
Heat Index: 29°   Visibility: 10mi
Dew Point: 12°   Wind: 15mph
Humidity: 49%   Direction: 310°NW
Pressure: 29.61"   Gusts: 28mph
Location:  43.1994°N, 103.759°W
Report Text: KCUT 231253Z AUTO 31013G24KT 270V340 10SM CLR M02/M11 A2961 RMK AO2 SLP035 T10171111
Loading
Personal Weather Stations






























Interactive Weather Map New forecast layout! Learn more

10-Day Weather Forecast

Advertisements
Track Severe Weather on mobile